sensor_id;sensor_type;location;lat;lon;timestamp;P1;durP1;ratioP1;P2;durP2;ratioP2
52590;SDS011;38483;42.620;25.394;2023-03-31T00:00:52;6.23;;;3.20;;
52590;SDS011;38483;42.620;25.394;2023-03-31T00:03:23;4.33;;;3.33;;
52590;SDS011;38483;42.620;25.394;2023-03-31T00:05:54;4.53;;;3.37;;
52590;SDS011;38483;42.620;25.394;2023-03-31T00:08:24;4.10;;;3.40;;
52590;SDS011;38483;42.620;25.394;2023-03-31T00:11:02;5.43;;;3.43;;
52590;SDS011;38483;42.620;25.394;2023-03-31T00:13:30;5.17;;;3.47;;
52590;SDS011;38483;42.620;25.394;2023-03-31T00:16:02;5.47;;;3.10;;
52590;SDS011;38483;42.620;25.394;2023-03-31T00:18:32;5.83;;;3.60;;
52590;SDS011;38483;42.620;25.394;2023-03-31T00:21:10;6.23;;;3.97;;
52590;SDS011;38483;42.620;25.394;2023-03-31T00:23:55;4.73;;;3.57;;
52590;SDS011;38483;42.620;25.394;2023-03-31T00:26:26;6.77;;;3.73;;
52590;SDS011;38483;42.620;25.394;2023-03-31T00:28:54;6.60;;;3.67;;
52590;SDS011;38483;42.620;25.394;2023-03-31T00:31:22;6.50;;;3.93;;
52590;SDS011;38483;42.620;25.394;2023-03-31T00:33:50;5.20;;;3.70;;
52590;SDS011;38483;42.620;25.394;2023-03-31T00:36:16;4.13;;;3.37;;
52590;SDS011;38483;42.620;25.394;2023-03-31T00:38:47;8.57;;;4.33;;
52590;SDS011;38483;42.620;25.394;2023-03-31T00:41:14;5.57;;;3.60;;
52590;SDS011;38483;42.620;25.394;2023-03-31T00:43:59;5.87;;;3.93;;
52590;SDS011;38483;42.620;25.394;2023-03-31T00:46:29;6.53;;;3.57;;
52590;SDS011;38483;42.620;25.394;2023-03-31T00:48:59;7.23;;;4.13;;
52590;SDS011;38483;42.620;25.394;2023-03-31T00:51:28;5.07;;;3.60;;
52590;SDS011;38483;42.620;25.394;2023-03-31T00:54:00;6.77;;;3.77;;
52590;SDS011;38483;42.620;25.394;2023-03-31T00:56:32;4.73;;;3.60;;
52590;SDS011;38483;42.620;25.394;2023-03-31T00:59:02;6.67;;;4.10;;
52590;SDS011;38483;42.620;25.394;2023-03-31T01:01:33;6.03;;;4.03;;
52590;SDS011;38483;42.620;25.394;2023-03-31T01:04:02;4.97;;;3.50;;
52590;SDS011;38483;42.620;25.394;2023-03-31T01:06:30;5.73;;;3.70;;
52590;SDS011;38483;42.620;25.394;2023-03-31T01:08:59;5.53;;;3.60;;
52590;SDS011;38483;42.620;25.394;2023-03-31T01:11:29;4.67;;;3.20;;
52590;SDS011;38483;42.620;25.394;2023-03-31T01:13:57;6.87;;;3.77;;
52590;SDS011;38483;42.620;25.394;2023-03-31T01:16:24;5.70;;;4.10;;
52590;SDS011;38483;42.620;25.394;2023-03-31T01:18:52;5.03;;;3.83;;
52590;SDS011;38483;42.620;25.394;2023-03-31T01:24:57;4.57;;;3.40;;
52590;SDS011;38483;42.620;25.394;2023-03-31T01:42:54;5.07;;;4.03;;
52590;SDS011;38483;42.620;25.394;2023-03-31T01:48:16;5.83;;;4.17;;
52590;SDS011;38483;42.620;25.394;2023-03-31T01:50:54;4.73;;;3.60;;
52590;SDS011;38483;42.620;25.394;2023-03-31T01:53:28;6.83;;;4.00;;
52590;SDS011;38483;42.620;25.394;2023-03-31T01:56:19;5.93;;;4.23;;
52590;SDS011;38483;42.620;25.394;2023-03-31T01:59:16;8.07;;;4.57;;
52590;SDS011;38483;42.620;25.394;2023-03-31T02:01:50;6.47;;;3.90;;
52590;SDS011;38483;42.620;25.394;2023-03-31T02:04:19;5.80;;;3.90;;
52590;SDS011;38483;42.620;25.394;2023-03-31T02:06:54;6.97;;;4.10;;
52590;SDS011;38483;42.620;25.394;2023-03-31T02:09:28;8.03;;;4.43;;
52590;SDS011;38483;42.620;25.394;2023-03-31T02:12:01;7.73;;;4.67;;
52590;SDS011;38483;42.620;25.394;2023-03-31T02:14:32;7.03;;;4.47;;
52590;SDS011;38483;42.620;25.394;2023-03-31T02:17:02;8.00;;;3.77;;
52590;SDS011;38483;42.620;25.394;2023-03-31T02:19:32;5.97;;;3.43;;
52590;SDS011;38483;42.620;25.394;2023-03-31T02:22:05;5.07;;;3.47;;
52590;SDS011;38483;42.620;25.394;2023-03-31T02:24:34;4.20;;;3.33;;
52590;SDS011;38483;42.620;25.394;2023-03-31T02:27:08;6.07;;;3.50;;
52590;SDS011;38483;42.620;25.394;2023-03-31T02:29:59;5.43;;;3.63;;
52590;SDS011;38483;42.620;25.394;2023-03-31T02:32:30;4.60;;;3.37;;
52590;SDS011;38483;42.620;25.394;2023-03-31T02:35:01;4.93;;;3.60;;
52590;SDS011;38483;42.620;25.394;2023-03-31T02:37:29;6.43;;;3.03;;
52590;SDS011;38483;42.620;25.394;2023-03-31T02:39:57;8.73;;;4.23;;
52590;SDS011;38483;42.620;25.394;2023-03-31T02:42:28;5.80;;;4.07;;
52590;SDS011;38483;42.620;25.394;2023-03-31T02:45:00;5.97;;;3.60;;
52590;SDS011;38483;42.620;25.394;2023-03-31T02:47:29;6.40;;;3.80;;
52590;SDS011;38483;42.620;25.394;2023-03-31T02:49:57;9.00;;;4.30;;
52590;SDS011;38483;42.620;25.394;2023-03-31T02:55:23;5.50;;;3.70;;
52590;SDS011;38483;42.620;25.394;2023-03-31T03:01:06;3.97;;;3.53;;
52590;SDS011;38483;42.620;25.394;2023-03-31T03:03:56;8.53;;;3.83;;
52590;SDS011;38483;42.620;25.394;2023-03-31T03:07:25;5.07;;;3.50;;
52590;SDS011;38483;42.620;25.394;2023-03-31T03:10:07;7.43;;;4.13;;
52590;SDS011;38483;42.620;25.394;2023-03-31T03:12:52;4.97;;;3.70;;
52590;SDS011;38483;42.620;25.394;2023-03-31T03:15:27;4.97;;;3.97;;
52590;SDS011;38483;42.620;25.394;2023-03-31T03:17:59;8.03;;;4.30;;
52590;SDS011;38483;42.620;25.394;2023-03-31T03:20:29;7.07;;;4.40;;
52590;SDS011;38483;42.620;25.394;2023-03-31T03:22:59;9.50;;;4.00;;
52590;SDS011;38483;42.620;25.394;2023-03-31T03:25:26;7.37;;;4.73;;
52590;SDS011;38483;42.620;25.394;2023-03-31T03:27:55;7.53;;;5.10;;
52590;SDS011;38483;42.620;25.394;2023-03-31T03:30:22;7.40;;;4.97;;
52590;SDS011;38483;42.620;25.394;2023-03-31T03:32:49;10.60;;;5.90;;
52590;SDS011;38483;42.620;25.394;2023-03-31T03:35:16;9.13;;;5.23;;
52590;SDS011;38483;42.620;25.394;2023-03-31T03:37:43;9.53;;;5.03;;
52590;SDS011;38483;42.620;25.394;2023-03-31T03:40:11;9.77;;;5.20;;
52590;SDS011;38483;42.620;25.394;2023-03-31T03:42:38;5.20;;;4.03;;
52590;SDS011;38483;42.620;25.394;2023-03-31T03:45:05;5.70;;;3.77;;
52590;SDS011;38483;42.620;25.394;2023-03-31T03:47:35;5.80;;;4.03;;
52590;SDS011;38483;42.620;25.394;2023-03-31T03:50:06;8.03;;;4.80;;
52590;SDS011;38483;42.620;25.394;2023-03-31T03:52:33;7.63;;;4.83;;
52590;SDS011;38483;42.620;25.394;2023-03-31T03:55:00;10.20;;;4.87;;
52590;SDS011;38483;42.620;25.394;2023-03-31T03:57:28;7.63;;;5.13;;
52590;SDS011;38483;42.620;25.394;2023-03-31T03:59:55;5.97;;;4.30;;
52590;SDS011;38483;42.620;25.394;2023-03-31T04:02:23;7.17;;;5.23;;
52590;SDS011;38483;42.620;25.394;2023-03-31T04:04:53;9.40;;;5.07;;
52590;SDS011;38483;42.620;25.394;2023-03-31T04:07:20;8.83;;;4.90;;
52590;SDS011;38483;42.620;25.394;2023-03-31T04:09:47;11.27;;;5.23;;
52590;SDS011;38483;42.620;25.394;2023-03-31T04:12:14;7.67;;;4.83;;
52590;SDS011;38483;42.620;25.394;2023-03-31T04:14:41;6.93;;;4.57;;
52590;SDS011;38483;42.620;25.394;2023-03-31T04:17:08;8.00;;;3.97;;
52590;SDS011;38483;42.620;25.394;2023-03-31T04:19:36;8.27;;;4.87;;
52590;SDS011;38483;42.620;25.394;2023-03-31T04:22:04;11.17;;;5.63;;
52590;SDS011;38483;42.620;25.394;2023-03-31T04:24:30;12.97;;;6.90;;
52590;SDS011;38483;42.620;25.394;2023-03-31T04:26:59;14.53;;;6.87;;
52590;SDS011;38483;42.620;25.394;2023-03-31T04:29:26;8.27;;;6.00;;
52590;SDS011;38483;42.620;25.394;2023-03-31T04:31:54;11.70;;;6.20;;
52590;SDS011;38483;42.620;25.394;2023-03-31T04:34:24;9.93;;;4.40;;
52590;SDS011;38483;42.620;25.394;2023-03-31T04:37:00;6.53;;;4.00;;
52590;SDS011;38483;42.620;25.394;2023-03-31T04:39:28;10.73;;;4.33;;
52590;SDS011;38483;42.620;25.394;2023-03-31T04:41:59;6.80;;;4.30;;
52590;SDS011;38483;42.620;25.394;2023-03-31T04:44:26;8.77;;;4.87;;
52590;SDS011;38483;42.620;25.394;2023-03-31T04:46:54;8.63;;;4.87;;
52590;SDS011;38483;42.620;25.394;2023-03-31T04:49:21;5.00;;;4.23;;
52590;SDS011;38483;42.620;25.394;2023-03-31T04:51:48;8.37;;;5.93;;
52590;SDS011;38483;42.620;25.394;2023-03-31T04:54:15;7.27;;;4.50;;
52590;SDS011;38483;42.620;25.394;2023-03-31T04:56:42;5.63;;;4.73;;
52590;SDS011;38483;42.620;25.394;2023-03-31T04:59:09;6.67;;;4.27;;
52590;SDS011;38483;42.620;25.394;2023-03-31T05:01:36;6.57;;;4.13;;
52590;SDS011;38483;42.620;25.394;2023-03-31T05:04:04;8.93;;;5.20;;
52590;SDS011;38483;42.620;25.394;2023-03-31T05:06:34;7.93;;;5.10;;
52590;SDS011;38483;42.620;25.394;2023-03-31T05:09:01;9.37;;;4.13;;
52590;SDS011;38483;42.620;25.394;2023-03-31T05:11:28;6.93;;;4.80;;
52590;SDS011;38483;42.620;25.394;2023-03-31T05:13:55;8.20;;;4.60;;
52590;SDS011;38483;42.620;25.394;2023-03-31T05:16:22;6.87;;;4.23;;
52590;SDS011;38483;42.620;25.394;2023-03-31T05:18:49;9.47;;;4.63;;
52590;SDS011;38483;42.620;25.394;2023-03-31T05:21:17;7.50;;;4.47;;
52590;SDS011;38483;42.620;25.394;2023-03-31T05:23:46;8.77;;;4.63;;
52590;SDS011;38483;42.620;25.394;2023-03-31T05:26:13;7.20;;;4.20;;
52590;SDS011;38483;42.620;25.394;2023-03-31T05:28:41;5.77;;;3.70;;
52590;SDS011;38483;42.620;25.394;2023-03-31T05:31:09;7.37;;;3.60;;
52590;SDS011;38483;42.620;25.394;2023-03-31T05:33:36;6.67;;;3.53;;
52590;SDS011;38483;42.620;25.394;2023-03-31T05:36:08;6.60;;;4.03;;
52590;SDS011;38483;42.620;25.394;2023-03-31T05:38:37;9.10;;;4.50;;
52590;SDS011;38483;42.620;25.394;2023-03-31T05:41:04;5.43;;;3.20;;
52590;SDS011;38483;42.620;25.394;2023-03-31T05:43:33;6.77;;;4.10;;
52590;SDS011;38483;42.620;25.394;2023-03-31T05:46:00;8.50;;;3.63;;
52590;SDS011;38483;42.620;25.394;2023-03-31T05:48:27;5.03;;;4.43;;
52590;SDS011;38483;42.620;25.394;2023-03-31T05:50:57;4.77;;;4.00;;
52590;SDS011;38483;42.620;25.394;2023-03-31T05:53:26;5.80;;;3.87;;
52590;SDS011;38483;42.620;25.394;2023-03-31T05:56:00;11.47;;;4.23;;
52590;SDS011;38483;42.620;25.394;2023-03-31T05:58:29;5.27;;;3.83;;
52590;SDS011;38483;42.620;25.394;2023-03-31T06:01:02;6.93;;;4.00;;
52590;SDS011;38483;42.620;25.394;2023-03-31T06:03:35;9.10;;;3.97;;
52590;SDS011;38483;42.620;25.394;2023-03-31T06:06:03;11.53;;;4.93;;
52590;SDS011;38483;42.620;25.394;2023-03-31T06:08:31;9.00;;;5.47;;
52590;SDS011;38483;42.620;25.394;2023-03-31T06:10:59;12.63;;;5.73;;
52590;SDS011;38483;42.620;25.394;2023-03-31T06:13:26;8.07;;;5.10;;
52590;SDS011;38483;42.620;25.394;2023-03-31T06:15:54;13.23;;;4.73;;
52590;SDS011;38483;42.620;25.394;2023-03-31T06:18:22;7.10;;;4.50;;
52590;SDS011;38483;42.620;25.394;2023-03-31T06:20:50;6.77;;;5.03;;
52590;SDS011;38483;42.620;25.394;2023-03-31T06:23:17;8.93;;;5.03;;
52590;SDS011;38483;42.620;25.394;2023-03-31T06:25:44;8.50;;;5.20;;
52590;SDS011;38483;42.620;25.394;2023-03-31T06:28:18;6.97;;;4.40;;
52590;SDS011;38483;42.620;25.394;2023-03-31T06:30:46;7.73;;;5.23;;
52590;SDS011;38483;42.620;25.394;2023-03-31T06:33:13;15.10;;;7.13;;
52590;SDS011;38483;42.620;25.394;2023-03-31T06:35:40;10.37;;;5.47;;
52590;SDS011;38483;42.620;25.394;2023-03-31T06:38:07;15.20;;;8.83;;
52590;SDS011;38483;42.620;25.394;2023-03-31T06:40:34;7.50;;;4.93;;
52590;SDS011;38483;42.620;25.394;2023-03-31T06:43:01;15.17;;;6.17;;
52590;SDS011;38483;42.620;25.394;2023-03-31T06:45:29;10.40;;;6.83;;
52590;SDS011;38483;42.620;25.394;2023-03-31T06:47:55;9.63;;;6.30;;
52590;SDS011;38483;42.620;25.394;2023-03-31T06:50:23;16.13;;;7.17;;
52590;SDS011;38483;42.620;25.394;2023-03-31T06:52:49;10.67;;;6.53;;
52590;SDS011;38483;42.620;25.394;2023-03-31T06:55:18;11.83;;;5.27;;
52590;SDS011;38483;42.620;25.394;2023-03-31T06:57:45;7.57;;;5.07;;
52590;SDS011;38483;42.620;25.394;2023-03-31T07:00:12;10.23;;;5.10;;
52590;SDS011;38483;42.620;25.394;2023-03-31T07:02:40;14.87;;;6.67;;
52590;SDS011;38483;42.620;25.394;2023-03-31T07:05:07;13.47;;;6.80;;
52590;SDS011;38483;42.620;25.394;2023-03-31T07:07:34;9.97;;;6.87;;
52590;SDS011;38483;42.620;25.394;2023-03-31T07:10:01;15.47;;;6.73;;
52590;SDS011;38483;42.620;25.394;2023-03-31T07:12:31;13.87;;;6.63;;
52590;SDS011;38483;42.620;25.394;2023-03-31T07:14:59;12.93;;;5.40;;
52590;SDS011;38483;42.620;25.394;2023-03-31T07:17:26;12.90;;;6.43;;
52590;SDS011;38483;42.620;25.394;2023-03-31T07:19:53;13.30;;;7.17;;
52590;SDS011;38483;42.620;25.394;2023-03-31T07:22:20;20.00;;;8.93;;
52590;SDS011;38483;42.620;25.394;2023-03-31T07:24:47;14.37;;;7.93;;
52590;SDS011;38483;42.620;25.394;2023-03-31T07:27:14;12.33;;;7.50;;
52590;SDS011;38483;42.620;25.394;2023-03-31T07:29:41;13.77;;;7.57;;
52590;SDS011;38483;42.620;25.394;2023-03-31T07:32:08;16.70;;;9.17;;
52590;SDS011;38483;42.620;25.394;2023-03-31T07:34:35;14.13;;;7.73;;
52590;SDS011;38483;42.620;25.394;2023-03-31T07:37:03;12.20;;;6.27;;
52590;SDS011;38483;42.620;25.394;2023-03-31T07:39:31;13.60;;;6.87;;
52590;SDS011;38483;42.620;25.394;2023-03-31T07:41:58;12.30;;;7.63;;
52590;SDS011;38483;42.620;25.394;2023-03-31T07:44:26;15.73;;;7.77;;
52590;SDS011;38483;42.620;25.394;2023-03-31T07:46:53;16.47;;;8.43;;
52590;SDS011;38483;42.620;25.394;2023-03-31T07:49:20;15.13;;;8.03;;
52590;SDS011;38483;42.620;25.394;2023-03-31T07:51:47;13.80;;;7.53;;
52590;SDS011;38483;42.620;25.394;2023-03-31T07:54:14;13.83;;;8.67;;
52590;SDS011;38483;42.620;25.394;2023-03-31T07:56:41;13.03;;;8.77;;
52590;SDS011;38483;42.620;25.394;2023-03-31T07:59:08;14.30;;;8.80;;
52590;SDS011;38483;42.620;25.394;2023-03-31T08:01:35;15.73;;;7.70;;
52590;SDS011;38483;42.620;25.394;2023-03-31T08:04:02;13.90;;;8.70;;
52590;SDS011;38483;42.620;25.394;2023-03-31T08:06:29;16.70;;;8.43;;
52590;SDS011;38483;42.620;25.394;2023-03-31T08:08:57;15.30;;;8.20;;
52590;SDS011;38483;42.620;25.394;2023-03-31T08:11:24;13.80;;;7.63;;
52590;SDS011;38483;42.620;25.394;2023-03-31T08:13:52;16.60;;;8.03;;
52590;SDS011;38483;42.620;25.394;2023-03-31T08:16:19;10.50;;;7.60;;
52590;SDS011;38483;42.620;25.394;2023-03-31T08:18:46;13.93;;;8.07;;
52590;SDS011;38483;42.620;25.394;2023-03-31T08:21:13;13.43;;;8.30;;
52590;SDS011;38483;42.620;25.394;2023-03-31T08:23:40;15.90;;;8.77;;
52590;SDS011;38483;42.620;25.394;2023-03-31T08:28:43;16.63;;;9.40;;
52590;SDS011;38483;42.620;25.394;2023-03-31T08:31:11;19.13;;;9.33;;
52590;SDS011;38483;42.620;25.394;2023-03-31T08:33:42;13.63;;;8.60;;
52590;SDS011;38483;42.620;25.394;2023-03-31T08:36:09;11.67;;;7.70;;
52590;SDS011;38483;42.620;25.394;2023-03-31T08:38:37;8.90;;;6.77;;
52590;SDS011;38483;42.620;25.394;2023-03-31T08:41:26;7.10;;;5.50;;
52590;SDS011;38483;42.620;25.394;2023-03-31T08:43:54;8.53;;;5.43;;
52590;SDS011;38483;42.620;25.394;2023-03-31T08:46:23;8.17;;;4.77;;
52590;SDS011;38483;42.620;25.394;2023-03-31T08:48:55;6.70;;;4.10;;
52590;SDS011;38483;42.620;25.394;2023-03-31T08:51:28;7.40;;;5.17;;
52590;SDS011;38483;42.620;25.394;2023-03-31T08:54:01;8.27;;;4.87;;
52590;SDS011;38483;42.620;25.394;2023-03-31T08:56:34;8.33;;;5.13;;
52590;SDS011;38483;42.620;25.394;2023-03-31T08:59:05;7.77;;;5.77;;
52590;SDS011;38483;42.620;25.394;2023-03-31T09:02:00;7.60;;;5.10;;
52590;SDS011;38483;42.620;25.394;2023-03-31T09:15:23;6.03;;;4.67;;
52590;SDS011;38483;42.620;25.394;2023-03-31T09:17:51;7.57;;;4.77;;
52590;SDS011;38483;42.620;25.394;2023-03-31T09:20:24;9.47;;;5.77;;
52590;SDS011;38483;42.620;25.394;2023-03-31T09:23:06;8.87;;;6.90;;
52590;SDS011;38483;42.620;25.394;2023-03-31T09:25:50;13.67;;;5.73;;
52590;SDS011;38483;42.620;25.394;2023-03-31T09:28:18;11.60;;;6.73;;
52590;SDS011;38483;42.620;25.394;2023-03-31T09:30:48;12.67;;;6.53;;
52590;SDS011;38483;42.620;25.394;2023-03-31T09:33:21;10.30;;;5.93;;
52590;SDS011;38483;42.620;25.394;2023-03-31T09:35:50;12.37;;;8.53;;
52590;SDS011;38483;42.620;25.394;2023-03-31T09:38:17;10.90;;;6.97;;
52590;SDS011;38483;42.620;25.394;2023-03-31T09:40:44;9.97;;;5.33;;
52590;SDS011;38483;42.620;25.394;2023-03-31T09:43:22;8.53;;;5.90;;
52590;SDS011;38483;42.620;25.394;2023-03-31T09:45:52;13.10;;;8.40;;
52590;SDS011;38483;42.620;25.394;2023-03-31T09:48:35;11.90;;;6.00;;
52590;SDS011;38483;42.620;25.394;2023-03-31T09:51:05;14.23;;;7.00;;
52590;SDS011;38483;42.620;25.394;2023-03-31T09:54:15;11.63;;;7.00;;
52590;SDS011;38483;42.620;25.394;2023-03-31T09:59:13;13.07;;;4.73;;
52590;SDS011;38483;42.620;25.394;2023-03-31T10:01:45;8.10;;;4.70;;
52590;SDS011;38483;42.620;25.394;2023-03-31T10:04:17;7.40;;;4.40;;
52590;SDS011;38483;42.620;25.394;2023-03-31T10:06:48;5.13;;;3.17;;
52590;SDS011;38483;42.620;25.394;2023-03-31T10:09:15;4.80;;;3.00;;
52590;SDS011;38483;42.620;25.394;2023-03-31T10:11:59;6.53;;;3.93;;
52590;SDS011;38483;42.620;25.394;2023-03-31T10:14:37;4.20;;;3.10;;
52590;SDS011;38483;42.620;25.394;2023-03-31T10:17:10;6.00;;;3.10;;
52590;SDS011;38483;42.620;25.394;2023-03-31T10:19:48;6.90;;;4.73;;
52590;SDS011;38483;42.620;25.394;2023-03-31T10:24:48;6.10;;;4.00;;
52590;SDS011;38483;42.620;25.394;2023-03-31T10:27:20;7.93;;;3.43;;
52590;SDS011;38483;42.620;25.394;2023-03-31T10:29:51;4.23;;;3.30;;
52590;SDS011;38483;42.620;25.394;2023-03-31T10:32:21;5.53;;;3.57;;
52590;SDS011;38483;42.620;25.394;2023-03-31T10:34:55;5.63;;;4.10;;
52590;SDS011;38483;42.620;25.394;2023-03-31T10:37:23;7.30;;;3.97;;
52590;SDS011;38483;42.620;25.394;2023-03-31T10:39:57;8.37;;;4.13;;
52590;SDS011;38483;42.620;25.394;2023-03-31T10:42:29;7.23;;;4.20;;
52590;SDS011;38483;42.620;25.394;2023-03-31T10:45:09;6.50;;;4.67;;
52590;SDS011;38483;42.620;25.394;2023-03-31T10:48:01;6.90;;;4.40;;
52590;SDS011;38483;42.620;25.394;2023-03-31T10:50:32;7.07;;;4.77;;
52590;SDS011;38483;42.620;25.394;2023-03-31T10:53:02;13.67;;;7.50;;
52590;SDS011;38483;42.620;25.394;2023-03-31T10:55:58;7.70;;;4.30;;
52590;SDS011;38483;42.620;25.394;2023-03-31T11:09:42;10.20;;;4.37;;
52590;SDS011;38483;42.620;25.394;2023-03-31T11:12:17;8.77;;;4.53;;
52590;SDS011;38483;42.620;25.394;2023-03-31T11:17:32;8.20;;;4.53;;
52590;SDS011;38483;42.620;25.394;2023-03-31T11:25:51;9.57;;;5.50;;
52590;SDS011;38483;42.620;25.394;2023-03-31T11:28:33;7.20;;;4.67;;
52590;SDS011;38483;42.620;25.394;2023-03-31T11:31:16;7.77;;;4.70;;
52590;SDS011;38483;42.620;25.394;2023-03-31T11:39:00;7.77;;;4.50;;
52590;SDS011;38483;42.620;25.394;2023-03-31T11:41:48;7.60;;;4.47;;
52590;SDS011;38483;42.620;25.394;2023-03-31T11:44:19;5.47;;;3.70;;
52590;SDS011;38483;42.620;25.394;2023-03-31T11:46:56;4.70;;;3.67;;
52590;SDS011;38483;42.620;25.394;2023-03-31T11:49:29;8.13;;;4.47;;
52590;SDS011;38483;42.620;25.394;2023-03-31T11:52:14;9.07;;;4.33;;
52590;SDS011;38483;42.620;25.394;2023-03-31T11:55:01;5.67;;;4.17;;
52590;SDS011;38483;42.620;25.394;2023-03-31T11:57:32;5.80;;;3.83;;
52590;SDS011;38483;42.620;25.394;2023-03-31T12:00:05;5.60;;;3.50;;
52590;SDS011;38483;42.620;25.394;2023-03-31T12:05:36;6.63;;;4.30;;
52590;SDS011;38483;42.620;25.394;2023-03-31T12:08:22;7.13;;;3.97;;
52590;SDS011;38483;42.620;25.394;2023-03-31T12:11:04;6.83;;;4.20;;
52590;SDS011;38483;42.620;25.394;2023-03-31T12:17:03;6.00;;;3.90;;
52590;SDS011;38483;42.620;25.394;2023-03-31T12:22:14;8.77;;;4.60;;
52590;SDS011;38483;42.620;25.394;2023-03-31T12:24:44;8.37;;;4.10;;
52590;SDS011;38483;42.620;25.394;2023-03-31T12:27:14;5.90;;;4.13;;
52590;SDS011;38483;42.620;25.394;2023-03-31T12:29:59;6.23;;;4.13;;
52590;SDS011;38483;42.620;25.394;2023-03-31T12:32:31;8.63;;;4.37;;
52590;SDS011;38483;42.620;25.394;2023-03-31T12:40:22;9.87;;;4.70;;
52590;SDS011;38483;42.620;25.394;2023-03-31T12:52:05;8.97;;;5.00;;
52590;SDS011;38483;42.620;25.394;2023-03-31T12:57:23;10.67;;;4.63;;
52590;SDS011;38483;42.620;25.394;2023-03-31T13:02:37;5.43;;;3.80;;
52590;SDS011;38483;42.620;25.394;2023-03-31T13:05:39;4.40;;;4.00;;
52590;SDS011;38483;42.620;25.394;2023-03-31T13:08:08;6.23;;;5.23;;
52590;SDS011;38483;42.620;25.394;2023-03-31T13:10:51;7.87;;;4.10;;
52590;SDS011;38483;42.620;25.394;2023-03-31T13:13:23;11.37;;;4.77;;
52590;SDS011;38483;42.620;25.394;2023-03-31T13:15:52;6.97;;;4.23;;
52590;SDS011;38483;42.620;25.394;2023-03-31T13:18:21;6.80;;;4.60;;
52590;SDS011;38483;42.620;25.394;2023-03-31T13:20:59;8.80;;;4.67;;
52590;SDS011;38483;42.620;25.394;2023-03-31T13:23:35;8.73;;;4.80;;
52590;SDS011;38483;42.620;25.394;2023-03-31T13:26:33;6.47;;;4.40;;
52590;SDS011;38483;42.620;25.394;2023-03-31T13:34:31;11.17;;;4.80;;
52590;SDS011;38483;42.620;25.394;2023-03-31T13:39:47;7.10;;;4.03;;
52590;SDS011;38483;42.620;25.394;2023-03-31T13:51:42;7.40;;;4.33;;
52590;SDS011;38483;42.620;25.394;2023-03-31T14:08:18;5.60;;;4.23;;
52590;SDS011;38483;42.620;25.394;2023-03-31T14:10:55;12.70;;;5.60;;
52590;SDS011;38483;42.620;25.394;2023-03-31T14:16:52;7.37;;;4.13;;
52590;SDS011;38483;42.620;25.394;2023-03-31T14:24:50;7.87;;;4.83;;
52590;SDS011;38483;42.620;25.394;2023-03-31T14:30:24;6.97;;;4.60;;
52590;SDS011;38483;42.620;25.394;2023-03-31T14:36:09;6.77;;;4.83;;
52590;SDS011;38483;42.620;25.394;2023-03-31T14:38:46;12.70;;;6.47;;
52590;SDS011;38483;42.620;25.394;2023-03-31T14:41:17;7.63;;;6.10;;
52590;SDS011;38483;42.620;25.394;2023-03-31T14:43:47;11.93;;;5.57;;
52590;SDS011;38483;42.620;25.394;2023-03-31T14:46:20;9.13;;;5.70;;
52590;SDS011;38483;42.620;25.394;2023-03-31T14:48:49;8.13;;;5.37;;
52590;SDS011;38483;42.620;25.394;2023-03-31T14:51:22;11.13;;;6.47;;
52590;SDS011;38483;42.620;25.394;2023-03-31T14:53:56;8.33;;;4.77;;
52590;SDS011;38483;42.620;25.394;2023-03-31T14:56:29;9.40;;;4.67;;
52590;SDS011;38483;42.620;25.394;2023-03-31T14:59:00;7.10;;;4.50;;
52590;SDS011;38483;42.620;25.394;2023-03-31T15:01:29;13.60;;;5.87;;
52590;SDS011;38483;42.620;25.394;2023-03-31T15:04:09;5.77;;;4.43;;
52590;SDS011;38483;42.620;25.394;2023-03-31T15:06:39;7.30;;;4.30;;
52590;SDS011;38483;42.620;25.394;2023-03-31T15:09:08;6.77;;;4.50;;
52590;SDS011;38483;42.620;25.394;2023-03-31T15:11:43;10.63;;;5.57;;
52590;SDS011;38483;42.620;25.394;2023-03-31T15:14:11;7.60;;;4.20;;
52590;SDS011;38483;42.620;25.394;2023-03-31T15:16:40;11.03;;;7.30;;
52590;SDS011;38483;42.620;25.394;2023-03-31T15:19:13;7.40;;;4.60;;
52590;SDS011;38483;42.620;25.394;2023-03-31T15:21:45;8.60;;;4.73;;
52590;SDS011;38483;42.620;25.394;2023-03-31T15:24:20;5.50;;;4.20;;
52590;SDS011;38483;42.620;25.394;2023-03-31T15:29:28;7.83;;;4.87;;
52590;SDS011;38483;42.620;25.394;2023-03-31T15:32:05;12.57;;;5.73;;
52590;SDS011;38483;42.620;25.394;2023-03-31T15:34:42;12.10;;;5.50;;
52590;SDS011;38483;42.620;25.394;2023-03-31T15:37:09;13.33;;;5.57;;
52590;SDS011;38483;42.620;25.394;2023-03-31T15:39:36;9.00;;;5.90;;
52590;SDS011;38483;42.620;25.394;2023-03-31T15:42:05;10.77;;;5.70;;
52590;SDS011;38483;42.620;25.394;2023-03-31T15:47:22;9.73;;;5.83;;
52590;SDS011;38483;42.620;25.394;2023-03-31T15:49:54;10.27;;;6.30;;
52590;SDS011;38483;42.620;25.394;2023-03-31T15:52:31;8.13;;;5.77;;
52590;SDS011;38483;42.620;25.394;2023-03-31T15:55:04;9.73;;;6.00;;
52590;SDS011;38483;42.620;25.394;2023-03-31T15:57:59;9.70;;;5.07;;
52590;SDS011;38483;42.620;25.394;2023-03-31T16:02:57;10.00;;;5.60;;
52590;SDS011;38483;42.620;25.394;2023-03-31T16:08:25;34.50;;;20.10;;
52590;SDS011;38483;42.620;25.394;2023-03-31T16:11:00;13.10;;;6.90;;
52590;SDS011;38483;42.620;25.394;2023-03-31T16:13:32;11.83;;;6.00;;
52590;SDS011;38483;42.620;25.394;2023-03-31T16:16:06;13.30;;;6.30;;
52590;SDS011;38483;42.620;25.394;2023-03-31T16:18:36;8.43;;;5.67;;
52590;SDS011;38483;42.620;25.394;2023-03-31T16:21:08;9.73;;;6.23;;
52590;SDS011;38483;42.620;25.394;2023-03-31T16:23:36;12.97;;;6.07;;
52590;SDS011;38483;42.620;25.394;2023-03-31T16:26:06;11.07;;;7.00;;
52590;SDS011;38483;42.620;25.394;2023-03-31T16:28:35;12.47;;;7.63;;
52590;SDS011;38483;42.620;25.394;2023-03-31T16:31:04;13.00;;;8.10;;
52590;SDS011;38483;42.620;25.394;2023-03-31T16:33:52;13.63;;;7.20;;
52590;SDS011;38483;42.620;25.394;2023-03-31T16:36:23;13.20;;;7.77;;
52590;SDS011;38483;42.620;25.394;2023-03-31T16:38:50;10.60;;;6.10;;
52590;SDS011;38483;42.620;25.394;2023-03-31T16:41:21;11.20;;;6.77;;
52590;SDS011;38483;42.620;25.394;2023-03-31T16:43:49;12.53;;;7.47;;
52590;SDS011;38483;42.620;25.394;2023-03-31T16:46:18;12.50;;;7.20;;
52590;SDS011;38483;42.620;25.394;2023-03-31T16:48:45;8.73;;;6.00;;
52590;SDS011;38483;42.620;25.394;2023-03-31T16:51:13;12.00;;;6.20;;
52590;SDS011;38483;42.620;25.394;2023-03-31T16:53:40;15.00;;;5.87;;
52590;SDS011;38483;42.620;25.394;2023-03-31T16:56:08;13.27;;;6.33;;
52590;SDS011;38483;42.620;25.394;2023-03-31T16:58:38;11.37;;;7.00;;
52590;SDS011;38483;42.620;25.394;2023-03-31T17:01:06;15.30;;;9.30;;
52590;SDS011;38483;42.620;25.394;2023-03-31T17:03:35;14.30;;;8.93;;
52590;SDS011;38483;42.620;25.394;2023-03-31T17:06:05;17.90;;;10.73;;
52590;SDS011;38483;42.620;25.394;2023-03-31T17:08:37;16.63;;;9.33;;
52590;SDS011;38483;42.620;25.394;2023-03-31T17:11:11;12.93;;;9.60;;
52590;SDS011;38483;42.620;25.394;2023-03-31T17:13:40;14.87;;;9.43;;
52590;SDS011;38483;42.620;25.394;2023-03-31T17:16:09;14.23;;;8.13;;
52590;SDS011;38483;42.620;25.394;2023-03-31T17:18:40;18.77;;;11.63;;
52590;SDS011;38483;42.620;25.394;2023-03-31T17:21:11;19.70;;;14.20;;
52590;SDS011;38483;42.620;25.394;2023-03-31T17:23:40;18.97;;;12.37;;
52590;SDS011;38483;42.620;25.394;2023-03-31T17:26:08;17.60;;;10.70;;
52590;SDS011;38483;42.620;25.394;2023-03-31T17:28:38;18.40;;;9.03;;
52590;SDS011;38483;42.620;25.394;2023-03-31T17:31:13;11.67;;;8.63;;
52590;SDS011;38483;42.620;25.394;2023-03-31T17:33:41;14.13;;;7.53;;